Time;durP1;ratioP1;P1;durP2;ratioP2;P2;SDS_P1;SDS_P2;PMS_P1;PMS_P2;Temp;Humidity;BMP_temperature;BMP_pressure;BME280_temperature;BME280_humidity;BME280_pressure;Samples;Min_cycle;Max_cycle;Signal;HPM_P1;HPM_P2
2022/03/08 00:01:36;;;;;;;8.90;5.18;;;2.50;99.90;;;;;;5130792;27;20046;-74
2022/03/08 00:04:02;;;;;;;6.75;4.40;;;2.60;99.90;;;;;;5130210;27;20059;-74
2022/03/08 00:06:28;;;;;;;7.43;4.35;;;2.50;99.90;;;;;;5110643;27;20050;-74
2022/03/08 00:08:53;;;;;;;6.82;4.53;;;2.50;99.90;;;;;;5113737;27;20057;-74
2022/03/08 00:11:19;;;;;;;6.40;4.15;;;2.50;99.90;;;;;;5134874;27;20046;-74
2022/03/08 00:13:46;;;;;;;7.07;4.50;;;2.50;99.90;;;;;;5131604;27;21035;-74
2022/03/08 00:16:12;;;;;;;6.68;4.45;;;2.60;99.90;;;;;;5150657;27;20083;-74
2022/03/08 00:18:38;;;;;;;5.93;4.47;;;2.50;99.90;;;;;;5129167;27;20053;-74
2022/03/08 00:21:05;;;;;;;7.53;4.95;;;2.50;99.90;;;;;;5131996;27;20047;-74
2022/03/08 00:23:32;;;;;;;6.75;4.70;;;2.50;99.90;;;;;;5132317;27;20501;-74
2022/03/08 00:26:00;;;;;;;6.95;4.57;;;2.50;99.90;;;;;;5130804;27;20069;-74
2022/03/08 00:28:26;;;;;;;7.00;4.55;;;2.50;99.90;;;;;;5131326;27;20046;-73
2022/03/08 00:30:52;;;;;;;7.68;5.00;;;2.50;99.90;;;;;;5149151;27;20058;-74
2022/03/08 00:33:18;;;;;;;7.10;4.70;;;2.40;99.90;;;;;;5136856;27;20507;-75
2022/03/08 00:35:44;;;;;;;7.03;4.38;;;2.30;99.90;;;;;;5118779;27;20034;-76
2022/03/08 00:38:10;;;;;;;6.97;4.70;;;2.30;99.90;;;;;;5130949;27;20451;-74
2022/03/08 00:40:36;;;;;;;6.85;4.68;;;2.30;99.90;;;;;;5131938;27;20383;-74
2022/03/08 00:43:02;;;;;;;9.82;4.80;;;2.00;99.90;;;;;;5131498;27;20119;-74
2022/03/08 00:45:28;;;;;;;8.35;5.10;;;3.00;99.90;;;;;;5132827;27;20073;-74
2022/03/08 00:47:54;;;;;;;7.80;5.13;;;3.30;99.90;;;;;;5148197;27;20121;-74
2022/03/08 00:50:22;;;;;;;9.00;5.10;;;2.20;99.90;;;;;;5131706;27;20126;-74
2022/03/08 00:52:49;;;;;;;8.65;5.60;;;2.10;99.90;;;;;;5131839;27;20082;-74
2022/03/08 00:55:18;;;;;;;10.57;5.50;;;2.10;99.90;;;;;;5130867;27;20050;-74
2022/03/08 00:57:45;;;;;;;8.57;5.47;;;2.10;99.90;;;;;;5129789;27;20095;-74
2022/03/08 01:00:13;;;;;;;7.53;5.03;;;2.10;99.90;;;;;;5154043;27;20053;-74
2022/03/08 01:02:39;;;;;;;8.65;5.90;;;2.10;99.90;;;;;;5132417;27;20061;-74
2022/03/08 01:05:05;;;;;;;9.20;5.20;;;2.10;99.90;;;;;;5131850;27;20137;-74
2022/03/08 01:07:31;;;;;;;9.68;5.47;;;2.10;99.90;;;;;;5135531;27;20367;-74
2022/03/08 01:09:57;;;;;;;10.63;5.80;;;2.10;99.90;;;;;;5116349;27;20043;-74
2022/03/08 01:12:23;;;;;;;9.38;5.53;;;3.40;99.90;;;;;;5129094;27;20110;-74
2022/03/08 01:14:49;;;;;;;10.82;5.88;;;1.90;99.90;;;;;;5132075;27;20064;-74
2022/03/08 01:17:15;;;;;;;9.40;5.90;;;2.00;99.90;;;;;;5134772;27;20042;-74
2022/03/08 01:19:41;;;;;;;9.23;6.18;;;2.00;99.90;;;;;;5152526;27;20053;-74
2022/03/08 01:22:07;;;;;;;8.85;5.80;;;1.70;99.90;;;;;;5133230;27;20026;-74
2022/03/08 01:24:33;;;;;;;8.63;5.63;;;3.00;99.90;;;;;;5137636;27;20098;-74
2022/03/08 01:26:59;;;;;;;8.75;5.93;;;2.00;99.90;;;;;;5155870;27;20482;-75
2022/03/08 01:29:25;;;;;;;10.63;6.30;;;2.10;99.90;;;;;;5155702;27;20038;-74
2022/03/08 01:31:50;;;;;;;11.13;6.00;;;1.90;99.90;;;;;;5134631;27;20072;-74
2022/03/08 01:34:16;;;;;;;10.07;6.05;;;2.00;99.90;;;;;;5130714;27;20043;-74
2022/03/08 01:36:43;;;;;;;9.48;6.07;;;3.40;99.90;;;;;;5130863;27;20172;-74
2022/03/08 01:39:09;;;;;;;10.13;5.93;;;3.40;99.90;;;;;;5155182;27;20054;-74
2022/03/08 01:41:35;;;;;;;11.43;6.28;;;1.20;99.90;;;;;;5152802;27;20118;-74
2022/03/08 01:44:01;;;;;;;9.43;6.05;;;1.80;99.90;;;;;;5152584;27;20118;-74
2022/03/08 01:46:26;;;;;;;9.15;6.30;;;1.80;99.90;;;;;;5151641;27;20184;-74
2022/03/08 01:48:52;;;;;;;9.10;6.18;;;3.20;99.90;;;;;;5132038;27;20402;-74
2022/03/08 01:51:18;;;;;;;11.52;6.38;;;1.70;99.90;;;;;;5133722;27;20126;-74
2022/03/08 01:53:45;;;;;;;9.18;6.15;;;1.70;99.90;;;;;;5131524;27;20199;-74
2022/03/08 01:56:11;;;;;;;10.65;6.55;;;1.60;99.90;;;;;;5152469;27;20050;-74
2022/03/08 01:58:38;;;;;;;11.43;6.45;;;1.60;99.90;;;;;;5116655;27;20049;-74
2022/03/08 02:01:05;;;;;;;10.10;6.78;;;1.60;99.90;;;;;;5134907;27;20038;-74
2022/03/08 02:03:31;;;;;;;10.57;7.18;;;1.60;99.90;;;;;;5133048;27;20394;-74
2022/03/08 02:05:57;;;;;;;11.70;6.97;;;1.50;99.90;;;;;;5133851;27;20498;-74
2022/03/08 02:08:22;;;;;;;11.25;7.07;;;2.50;99.90;;;;;;5116306;27;20123;-73
2022/03/08 02:10:51;;;;;;;11.25;7.13;;;1.50;99.90;;;;;;5132467;27;20054;-73
2022/03/08 02:13:16;;;;;;;11.43;7.45;;;1.50;99.90;;;;;;5151229;27;20371;-74
2022/03/08 02:15:47;;;;;;;12.55;7.38;;;1.50;99.90;;;;;;5134140;27;20099;-74
2022/03/08 02:18:13;;;;;;;12.35;7.65;;;1.50;99.90;;;;;;5114767;27;20078;-74
2022/03/08 02:20:39;;;;;;;11.38;7.63;;;1.60;99.90;;;;;;5151371;27;20126;-74
2022/03/08 02:23:04;;;;;;;14.43;8.15;;;1.60;99.90;;;;;;5129930;27;20133;-74
2022/03/08 02:25:30;;;;;;;12.68;8.02;;;1.70;99.90;;;;;;5132235;27;20050;-74
2022/03/08 02:27:56;;;;;;;11.82;7.45;;;1.70;99.90;;;;;;5133910;27;20046;-74
2022/03/08 02:30:23;;;;;;;13.68;7.88;;;1.80;99.90;;;;;;5133740;27;20515;-74
2022/03/08 02:32:49;;;;;;;14.52;8.07;;;1.80;99.90;;;;;;5114297;27;20061;-74
2022/03/08 02:35:19;;;;;;;11.50;7.65;;;2.70;99.90;;;;;;5135261;27;20107;-74
2022/03/08 02:37:51;;;;;;;11.02;7.55;;;1.70;99.90;;;;;;5132570;27;20045;-74
2022/03/08 02:40:19;;;;;;;14.48;8.27;;;1.70;99.90;;;;;;5115955;27;20491;-74
2022/03/08 02:42:45;;;;;;;11.80;7.85;;;1.70;99.90;;;;;;5132588;27;20042;-74
2022/03/08 02:45:12;;;;;;;15.30;8.20;;;1.70;99.90;;;;;;5133621;27;20038;-73
2022/03/08 02:47:38;;;;;;;12.85;8.73;;;1.60;99.90;;;;;;5130965;27;20364;-74
2022/03/08 02:50:06;;;;;;;15.05;8.90;;;1.60;99.90;;;;;;5150781;27;20108;-74
2022/03/08 02:52:33;;;;;;;13.25;8.55;;;1.60;99.90;;;;;;5132469;27;20050;-73
2022/03/08 02:54:59;;;;;;;15.18;8.90;;;1.60;99.90;;;;;;5115618;27;20097;-74
2022/03/08 02:57:24;;;;;;;15.02;9.27;;;1.50;99.90;;;;;;5132135;27;20449;-74
2022/03/08 02:59:50;;;;;;;14.27;8.90;;;1.50;99.90;;;;;;5151401;27;20058;-74
2022/03/08 03:02:16;;;;;;;13.10;8.88;;;1.50;99.90;;;;;;5130107;27;20039;-74
2022/03/08 03:04:42;;;;;;;13.50;8.48;;;1.50;99.90;;;;;;5131786;27;20399;-74
2022/03/08 03:07:07;;;;;;;13.98;8.98;;;1.50;99.90;;;;;;5132893;27;20129;-74
2022/03/08 03:09:33;;;;;;;13.32;8.95;;;1.50;99.90;;;;;;5150346;27;20451;-74
2022/03/08 03:11:59;;;;;;;12.35;8.82;;;1.50;99.90;;;;;;5132844;27;20038;-73
2022/03/08 03:14:24;;;;;;;15.32;9.55;;;1.50;99.90;;;;;;5149447;27;20099;-73
2022/03/08 03:16:50;;;;;;;14.13;8.90;;;1.50;99.90;;;;;;5114645;27;20402;-73
2022/03/08 03:19:16;;;;;;;16.42;9.15;;;3.00;99.90;;;;;;5132239;27;20043;-73
2022/03/08 03:21:42;;;;;;;13.35;9.38;;;1.40;99.90;;;;;;5129703;27;20039;-74
2022/03/08 03:24:07;;;;;;;13.00;8.90;;;1.40;99.90;;;;;;5133376;27;20046;-73
2022/03/08 03:26:33;;;;;;;14.57;9.23;;;1.40;99.90;;;;;;5150744;27;20114;-73
2022/03/08 03:28:59;;;;;;;15.50;9.70;;;1.90;99.90;;;;;;5114318;27;20135;-73
2022/03/08 03:31:24;;;;;;;15.82;9.68;;;1.40;99.90;;;;;;5149434;27;20038;-73
2022/03/08 03:33:50;;;;;;;14.10;9.50;;;1.40;99.90;;;;;;5133288;27;20035;-73
2022/03/08 03:36:16;;;;;;;15.23;10.05;;;1.40;99.90;;;;;;5114436;27;20486;-74
2022/03/08 03:38:41;;;;;;;15.88;9.88;;;2.70;99.90;;;;;;5131856;27;20035;-73
2022/03/08 03:41:07;;;;;;;15.90;10.75;;;1.30;99.90;;;;;;5134619;27;20039;-74
2022/03/08 03:43:33;;;;;;;16.00;10.45;;;1.60;99.90;;;;;;5114104;27;20042;-73
2022/03/08 03:45:58;;;;;;;15.98;10.23;;;1.30;99.90;;;;;;5132448;27;20122;-73
2022/03/08 03:48:24;;;;;;;15.43;9.88;;;1.30;99.90;;;;;;5130831;27;20398;-73
2022/03/08 03:50:50;;;;;;;14.88;9.90;;;2.70;99.90;;;;;;5149863;27;20054;-74
2022/03/08 03:53:16;;;;;;;16.23;9.60;;;2.60;99.90;;;;;;5121938;27;20047;-74
2022/03/08 03:55:41;;;;;;;14.82;9.82;;;1.30;99.90;;;;;;5133431;27;20046;-74
2022/03/08 03:58:07;;;;;;;15.93;9.50;;;1.20;99.90;;;;;;5130767;27;20046;-74
2022/03/08 04:00:34;;;;;;;15.60;9.90;;;1.20;99.90;;;;;;5131588;27;20133;-74
2022/03/08 04:02:59;;;;;;;15.90;9.90;;;1.20;99.90;;;;;;5149144;27;20463;-74
2022/03/08 04:05:25;;;;;;;16.42;10.25;;;1.20;99.90;;;;;;5131597;27;20049;-73
2022/03/08 04:07:51;;;;;;;14.70;9.90;;;1.10;99.90;;;;;;5149123;27;20149;-74
2022/03/08 04:10:17;;;;;;;17.40;10.45;;;1.10;99.90;;;;;;5131538;27;20039;-74
2022/03/08 04:12:43;;;;;;;16.05;9.85;;;1.10;99.90;;;;;;5109736;27;20083;-74
2022/03/08 04:15:09;;;;;;;15.55;10.05;;;1.00;99.90;;;;;;5132050;27;20107;-73
2022/03/08 04:17:35;;;;;;;16.17;9.77;;;1.00;99.90;;;;;;5128784;27;20150;-74
2022/03/08 04:20:01;;;;;;;16.08;10.50;;;1.00;99.90;;;;;;5131907;27;20137;-73
2022/03/08 04:22:26;;;;;;;13.75;10.05;;;2.40;99.90;;;;;;5124003;27;20455;-74
2022/03/08 04:24:53;;;;;;;16.27;9.95;;;0.90;99.90;;;;;;5113812;27;20093;-73
2022/03/08 04:27:19;;;;;;;16.05;10.73;;;0.90;99.90;;;;;;5133282;27;20043;-73
2022/03/08 04:29:45;;;;;;;16.98;10.98;;;0.90;99.90;;;;;;5131004;27;20042;-74
2022/03/08 04:32:10;;;;;;;15.38;10.65;;;0.90;99.90;;;;;;5130259;27;20046;-74
2022/03/08 04:34:36;;;;;;;16.70;10.95;;;0.90;99.90;;;;;;5129908;27;20047;-74
2022/03/08 04:37:02;;;;;;;18.20;10.63;;;0.90;99.90;;;;;;5130343;27;20394;-74
2022/03/08 04:39:27;;;;;;;15.45;10.50;;;0.80;99.90;;;;;;5130545;27;20039;-74
2022/03/08 04:41:53;;;;;;;15.52;10.95;;;0.90;99.90;;;;;;5149351;27;20039;-74
2022/03/08 04:44:19;;;;;;;16.33;10.50;;;0.80;99.90;;;;;;5133125;27;20043;-75
2022/03/08 04:46:44;;;;;;;15.65;10.68;;;0.80;99.90;;;;;;5115655;27;20042;-73
2022/03/08 04:49:10;;;;;;;17.35;11.63;;;2.10;99.90;;;;;;5131531;27;20070;-73
2022/03/08 04:51:36;;;;;;;18.08;11.57;;;0.80;99.90;;;;;;5130375;27;20138;-73
2022/03/08 04:54:02;;;;;;;20.20;12.27;;;0.90;99.90;;;;;;5129996;27;20045;-73
2022/03/08 04:56:27;;;;;;;18.92;11.50;;;0.80;99.90;;;;;;5131035;27;20038;-74
2022/03/08 04:58:53;;;;;;;18.70;11.73;;;0.80;99.90;;;;;;5130566;27;20046;-74
2022/03/08 05:01:19;;;;;;;18.92;11.80;;;0.80;99.90;;;;;;5129955;27;20050;-74
2022/03/08 05:03:45;;;;;;;18.15;12.20;;;0.80;99.90;;;;;;5129467;27;20039;-74
2022/03/08 05:06:11;;;;;;;19.75;12.65;;;1.10;99.90;;;;;;5130878;27;20111;-74
2022/03/08 05:08:36;;;;;;;19.17;11.98;;;0.80;99.90;;;;;;5129708;27;20043;-74
2022/03/08 05:11:02;;;;;;;19.92;11.82;;;2.30;99.90;;;;;;5130341;27;20034;-74
2022/03/08 05:13:31;;;;;;;18.73;11.10;;;0.80;99.90;;;;;;5149281;27;20412;-73
2022/03/08 05:15:57;;;;;;;18.88;11.75;;;0.80;99.90;;;;;;5130569;27;20100;-74
2022/03/08 05:18:22;;;;;;;16.58;11.63;;;0.70;99.90;;;;;;5149495;27;20042;-74
2022/03/08 05:20:48;;;;;;;16.95;11.10;;;0.70;99.90;;;;;;5149823;27;20505;-74
2022/03/08 05:23:14;;;;;;;19.92;12.25;;;0.70;99.90;;;;;;5147898;27;20039;-74
2022/03/08 05:25:41;;;;;;;19.08;12.38;;;0.80;99.90;;;;;;5130117;27;20074;-73
2022/03/08 05:28:07;;;;;;;21.15;12.35;;;0.80;99.90;;;;;;5130174;27;20144;-74
2022/03/08 05:30:33;;;;;;;18.88;11.75;;;-0.40;99.90;;;;;;5150680;27;20047;-74
2022/03/08 05:32:58;;;;;;;21.23;12.70;;;0.80;99.90;;;;;;5129808;27;20046;-74
2022/03/08 05:35:24;;;;;;;21.80;13.95;;;0.80;99.90;;;;;;5148310;27;20057;-74
2022/03/08 05:37:50;;;;;;;23.58;14.05;;;0.80;99.90;;;;;;5129426;27;20055;-74
2022/03/08 05:40:15;;;;;;;24.23;13.75;;;0.80;99.90;;;;;;5131517;27;20046;-74
2022/03/08 05:42:43;;;;;;;23.98;13.10;;;0.80;99.90;;;;;;5128781;27;20034;-73
2022/03/08 05:45:10;;;;;;;20.50;13.15;;;0.80;99.90;;;;;;5150202;27;20082;-74
2022/03/08 05:47:38;;;;;;;20.52;13.25;;;1.80;99.90;;;;;;5150510;27;20564;-74
2022/03/08 05:50:05;;;;;;;21.05;13.65;;;0.80;99.90;;;;;;5152795;27;20046;-73
2022/03/08 05:52:31;;;;;;;22.30;14.48;;;0.70;99.90;;;;;;5132969;27;20092;-74
2022/03/08 05:54:56;;;;;;;23.65;14.55;;;0.80;99.90;;;;;;5134498;27;20039;-74
2022/03/08 05:57:22;;;;;;;21.08;13.77;;;0.70;99.90;;;;;;5133308;27;20042;-73
2022/03/08 05:59:49;;;;;;;24.73;14.20;;;0.80;99.90;;;;;;5152059;27;20433;-72
2022/03/08 06:02:16;;;;;;;22.02;14.45;;;0.70;99.90;;;;;;5132717;27;20046;-73
2022/03/08 06:04:42;;;;;;;22.02;13.60;;;0.80;99.90;;;;;;5150979;27;20061;-73
2022/03/08 06:07:08;;;;;;;21.48;13.27;;;0.60;99.90;;;;;;5152367;27;20113;-74
2022/03/08 06:09:34;;;;;;;21.13;13.77;;;0.70;99.90;;;;;;5116217;27;20043;-74
2022/03/08 06:12:00;;;;;;;24.40;14.25;;;0.70;99.90;;;;;;5133604;27;20080;-73
2022/03/08 06:14:27;;;;;;;24.90;13.60;;;0.70;99.90;;;;;;5119067;27;20062;-74
2022/03/08 06:16:52;;;;;;;26.40;14.13;;;0.60;99.90;;;;;;5134642;27;20111;-73
2022/03/08 06:19:18;;;;;;;21.42;13.65;;;0.60;99.90;;;;;;5134125;27;20293;-73
2022/03/08 06:21:44;;;;;;;25.58;14.27;;;0.60;99.90;;;;;;5116386;27;20066;-73
2022/03/08 06:24:11;;;;;;;23.98;13.40;;;0.70;99.90;;;;;;5133385;27;20099;-73
2022/03/08 06:26:37;;;;;;;20.27;12.88;;;0.70;99.90;;;;;;5135629;27;20121;-73
2022/03/08 06:29:03;;;;;;;27.00;14.32;;;0.70;99.90;;;;;;5133390;27;20451;-74
2022/03/08 06:31:28;;;;;;;24.65;14.40;;;0.70;99.90;;;;;;5132437;27;20317;-72
2022/03/08 06:33:54;;;;;;;26.35;14.90;;;0.70;99.90;;;;;;5131876;27;20047;-73
2022/03/08 06:36:20;;;;;;;21.83;14.77;;;0.80;99.90;;;;;;5115861;27;20114;-74
2022/03/08 06:38:46;;;;;;;24.08;14.52;;;0.80;99.90;;;;;;5150671;27;20042;-76
2022/03/08 06:41:12;;;;;;;23.77;14.25;;;0.80;99.90;;;;;;5115492;27;20041;-74
2022/03/08 06:43:39;;;;;;;22.17;13.05;;;0.80;99.90;;;;;;5115376;27;20058;-74
2022/03/08 06:46:05;;;;;;;23.17;13.57;;;0.90;99.90;;;;;;5132273;27;20053;-75
2022/03/08 06:48:31;;;;;;;22.70;13.20;;;0.90;99.90;;;;;;5132296;27;20057;-75
2022/03/08 06:50:57;;;;;;;22.08;13.38;;;1.00;99.90;;;;;;5132249;27;20035;-74
2022/03/08 06:53:22;;;;;;;20.40;11.95;;;1.20;99.90;;;;;;5122612;27;20039;-74
2022/03/08 06:55:48;;;;;;;19.48;12.45;;;1.70;99.90;;;;;;5134229;27;20057;-73
2022/03/08 06:58:15;;;;;;;16.85;11.60;;;2.10;99.90;;;;;;5131811;27;20068;-74
2022/03/08 07:00:41;;;;;;;19.13;11.63;;;2.80;99.90;;;;;;5116846;27;20055;-74
2022/03/08 07:03:08;;;;;;;18.40;11.55;;;3.70;99.90;;;;;;5107437;28;20043;-74
2022/03/08 07:05:34;;;;;;;17.25;10.75;;;5.10;99.90;;;;;;5109940;28;20488;-75
2022/03/08 07:08:00;;;;;;;17.98;10.50;;;6.10;99.90;;;;;;5107659;28;20055;-74
2022/03/08 07:10:25;;;;;;;15.98;10.18;;;7.40;99.90;;;;;;5091557;28;20404;-75
2022/03/08 07:12:51;;;;;;;14.30;9.52;;;6.80;99.90;;;;;;5088515;28;20040;-73
2022/03/08 07:15:17;;;;;;;17.73;10.90;;;7.20;99.90;;;;;;5110520;27;20072;-74
2022/03/08 07:17:47;;;;;;;16.70;10.55;;;7.90;99.90;;;;;;5128367;27;20035;-75
2022/03/08 07:20:13;;;;;;;16.20;10.32;;;8.60;99.90;;;;;;5116690;27;20039;-75
2022/03/08 07:22:39;;;;;;;17.63;10.95;;;8.30;99.90;;;;;;5106667;28;20047;-75
2022/03/08 07:25:06;;;;;;;18.02;10.00;;;9.20;99.90;;;;;;5108288;28;20129;-75
2022/03/08 07:27:32;;;;;;;14.50;10.30;;;9.30;99.90;;;;;;5094031;28;20044;-75
2022/03/08 07:29:57;;;;;;;16.23;9.98;;;8.80;99.90;;;;;;5089370;28;20044;-74
2022/03/08 07:32:23;;;;;;;14.18;10.32;;;9.80;99.90;;;;;;5120580;27;20074;-74
2022/03/08 07:34:49;;;;;;;19.60;9.98;;;10.60;99.90;;;;;;5087794;28;20078;-75
2022/03/08 07:37:15;;;;;;;18.85;10.20;;;10.10;99.90;;;;;;5088664;28;20044;-75
2022/03/08 07:39:41;;;;;;;14.32;10.18;;;11.30;99.90;;;;;;5099473;28;20047;-75
2022/03/08 07:42:06;;;;;;;15.65;10.55;;;11.50;99.90;;;;;;5107346;28;20131;-76
2022/03/08 07:44:32;;;;;;;14.95;10.07;;;11.60;99.90;;;;;;5107181;28;20047;-75
2022/03/08 07:46:59;;;;;;;15.27;9.68;;;11.20;99.90;;;;;;5108703;28;20089;-75
2022/03/08 07:49:25;;;;;;;12.90;9.75;;;10.80;99.90;;;;;;5099325;28;20205;-75
2022/03/08 07:51:52;;;;;;;14.75;10.00;;;10.70;99.90;;;;;;5091871;28;20039;-76
2022/03/08 07:54:17;;;;;;;15.63;10.27;;;10.90;99.90;;;;;;5111763;27;20044;-76
2022/03/08 07:56:43;;;;;;;17.17;9.77;;;12.50;99.90;;;;;;5101018;27;20507;-77
2022/03/08 07:59:11;;;;;;;17.05;10.57;;;12.00;98.00;;;;;;5129538;27;20054;-76
2022/03/08 08:01:36;;;;;;;15.50;9.68;;;13.40;96.70;;;;;;5129035;27;20047;-76
2022/03/08 08:04:02;;;;;;;12.55;8.93;;;12.30;97.40;;;;;;5109265;27;20038;-75
2022/03/08 08:06:28;;;;;;;12.70;9.40;;;10.70;97.50;;;;;;5111138;27;20704;-76
2022/03/08 08:08:53;;;;;;;15.52;10.05;;;10.60;99.90;;;;;;5116698;27;20068;-77
2022/03/08 08:11:20;;;;;;;15.07;10.15;;;11.80;99.20;;;;;;5125379;27;20054;-74
2022/03/08 08:13:48;;;;;;;12.88;9.85;;;13.70;94.30;;;;;;5092581;27;20035;-74
2022/03/08 08:16:14;;;;;;;14.35;9.43;;;15.10;88.40;;;;;;5094002;27;20399;-75
2022/03/08 08:18:40;;;;;;;16.38;9.80;;;16.30;82.60;;;;;;5126855;27;20095;-74
2022/03/08 08:21:06;;;;;;;11.82;9.07;;;17.80;73.40;;;;;;5110495;27;20049;-74
2022/03/08 08:23:32;;;;;;;12.60;9.25;;;18.00;71.20;;;;;;5126615;27;20078;-74
2022/03/08 08:25:58;;;;;;;12.70;9.13;;;18.80;68.20;;;;;;5110069;27;20035;-75
2022/03/08 08:28:23;;;;;;;11.82;8.93;;;19.40;62.90;;;;;;5110200;27;20043;-74
2022/03/08 08:30:49;;;;;;;12.38;8.82;;;18.10;63.10;;;;;;5127966;27;20134;-74
2022/03/08 08:33:15;;;;;;;14.20;9.10;;;15.70;66.30;;;;;;5108639;27;20107;-74
2022/03/08 08:35:41;;;;;;;11.07;8.65;;;14.80;68.80;;;;;;5093282;27;20054;-74
2022/03/08 08:38:07;;;;;;;11.98;8.68;;;12.70;76.00;;;;;;5109421;27;20161;-74
2022/03/08 08:40:34;;;;;;;11.43;8.30;;;11.80;79.20;;;;;;5109926;27;20050;-76
2022/03/08 08:43:01;;;;;;;13.82;8.75;;;10.90;83.00;;;;;;5128592;27;20380;-76
2022/03/08 08:45:27;;;;;;;13.45;8.77;;;10.20;87.70;;;;;;5110158;27;20118;-76
2022/03/08 08:47:53;;;;;;;13.07;9.15;;;10.30;91.40;;;;;;5128112;27;20564;-73
2022/03/08 08:50:18;;;;;;;11.90;8.98;;;12.10;91.70;;;;;;5112927;27;20046;-73
2022/03/08 08:52:44;;;;;;;12.80;8.73;;;15.40;83.70;;;;;;5109783;27;20122;-73
2022/03/08 08:55:10;;;;;;;11.85;8.60;;;16.10;71.90;;;;;;5128486;28;20047;-73
2022/03/08 08:57:37;;;;;;;11.13;8.80;;;18.20;66.10;;;;;;5106182;28;20077;-73
2022/03/08 09:00:04;;;;;;;11.50;8.18;;;19.60;60.30;;;;;;5129142;27;20074;-74
2022/03/08 09:02:30;;;;;;;12.00;8.02;;;20.50;54.60;;;;;;5091006;28;20045;-74
2022/03/08 09:04:56;;;;;;;9.82;7.90;;;21.40;51.90;;;;;;5110690;28;20122;-75
2022/03/08 09:07:21;;;;;;;12.27;8.13;;;21.90;50.20;;;;;;5110424;28;20047;-73
2022/03/08 09:09:49;;;;;;;14.13;8.30;;;22.60;48.40;;;;;;5109863;28;20407;-73
2022/03/08 09:12:15;;;;;;;11.18;8.30;;;22.60;47.00;;;;;;5111447;28;20050;-73
2022/03/08 09:14:41;;;;;;;10.77;7.22;;;22.80;46.60;;;;;;5112266;28;20047;-73
2022/03/08 09:17:06;;;;;;;10.05;7.20;;;23.50;46.30;;;;;;5111182;28;20039;-73
2022/03/08 09:19:32;;;;;;;11.27;7.55;;;23.80;45.40;;;;;;5091287;28;20138;-73
2022/03/08 09:21:58;;;;;;;9.35;7.38;;;24.30;44.60;;;;;;5114101;27;20050;-73
2022/03/08 09:24:24;;;;;;;11.65;7.75;;;24.70;44.10;;;;;;5132942;27;20047;-74
2022/03/08 09:26:49;;;;;;;8.95;6.97;;;25.40;43.20;;;;;;5112756;27;20152;-73
2022/03/08 09:29:15;;;;;;;9.55;7.03;;;26.00;41.50;;;;;;5113607;27;20039;-73
2022/03/08 09:31:40;;;;;;;12.48;6.90;;;25.40;40.60;;;;;;5138455;27;20077;-74
2022/03/08 09:34:06;;;;;;;11.23;6.80;;;26.10;40.60;;;;;;5132714;27;20034;-73
2022/03/08 09:36:32;;;;;;;8.65;6.85;;;25.90;40.50;;;;;;5116681;27;20154;-74
2022/03/08 09:38:58;;;;;;;8.48;6.80;;;26.00;40.50;;;;;;5134099;27;20039;-74
2022/03/08 09:41:25;;;;;;;9.20;7.20;;;26.00;40.20;;;;;;5133872;27;20047;-74
2022/03/08 09:43:51;;;;;;;8.93;6.63;;;26.50;39.90;;;;;;5133718;27;20053;-74
2022/03/08 09:46:18;;;;;;;9.07;6.80;;;27.00;39.70;;;;;;5133891;27;20047;-72
2022/03/08 09:48:43;;;;;;;10.68;6.63;;;26.60;38.40;;;;;;5151514;27;20050;-74
2022/03/08 09:51:10;;;;;;;8.95;7.10;;;26.70;38.40;;;;;;5134077;27;20475;-74
2022/03/08 09:53:37;;;;;;;10.32;6.68;;;26.60;38.70;;;;;;5150913;27;20075;-74
2022/03/08 09:56:03;;;;;;;9.75;6.55;;;26.90;38.50;;;;;;5152801;27;20087;-74
2022/03/08 09:58:30;;;;;;;8.40;6.50;;;27.10;38.20;;;;;;5133430;27;20054;-74
2022/03/08 10:00:59;;;;;;;8.70;6.40;;;27.20;38.40;;;;;;5133845;27;20046;-72
2022/03/08 10:03:38;;;;;;;8.48;6.55;;;28.10;38.60;;;;;;5133165;27;20047;-74
2022/03/08 10:06:05;;;;;;;8.90;6.63;;;27.40;36.70;;;;;;5151174;27;20059;-74
2022/03/08 10:08:31;;;;;;;9.05;6.50;;;27.60;37.20;;;;;;5131144;27;20055;-74
2022/03/08 10:11:03;;;;;;;10.43;6.35;;;27.70;36.50;;;;;;5131344;27;20053;-73
2022/03/08 10:13:35;;;;;;;8.95;6.43;;;28.50;37.10;;;;;;5112933;27;20353;-73
2022/03/08 10:16:13;;;;;;;8.90;5.57;;;29.60;36.40;;;;;;5125897;27;20053;-74
2022/03/08 10:18:40;;;;;;;10.60;5.72;;;29.60;35.00;;;;;;5131908;27;20502;-73
2022/03/08 10:21:32;;;;;;;20.65;6.00;;;29.80;34.70;;;;;;5125745;27;20061;-74
2022/03/08 10:24:24;;;;;;;10.23;5.78;;;29.80;33.40;;;;;;5131100;27;20449;-74
2022/03/08 10:26:56;;;;;;;8.73;5.57;;;28.00;34.20;;;;;;5120034;27;20054;-74
2022/03/08 10:29:32;;;;;;;7.15;5.38;;;27.50;35.00;;;;;;5112853;27;20051;-73
2022/03/08 10:32:07;;;;;;;9.15;5.22;;;27.50;34.70;;;;;;5111621;27;20047;-74
2022/03/08 10:34:34;;;;;;;6.82;5.68;;;27.30;34.20;;;;;;5110458;27;20492;-74
2022/03/08 10:37:07;;;;;;;8.07;5.60;;;27.30;34.50;;;;;;5126581;27;20096;-74
2022/03/08 10:39:34;;;;;;;7.28;5.13;;;28.30;34.30;;;;;;5127280;27;21097;-73
2022/03/08 10:42:00;;;;;;;7.25;5.30;;;28.30;34.40;;;;;;5127606;27;20352;-72
2022/03/08 10:44:37;;;;;;;8.02;5.38;;;28.40;33.10;;;;;;5110536;27;20038;-72
2022/03/08 10:47:09;;;;;;;9.60;5.57;;;28.20;33.10;;;;;;5093845;27;20051;-72
2022/03/08 10:49:59;;;;;;;6.18;4.65;;;28.00;32.70;;;;;;5110991;27;20150;-73
2022/03/08 10:52:37;;;;;;;8.02;5.00;;;27.90;33.00;;;;;;5097069;27;20050;-72
2022/03/08 10:55:19;;;;;;;7.43;5.03;;;28.90;33.20;;;;;;5112317;27;20047;-73
2022/03/08 10:57:50;;;;;;;7.65;5.45;;;29.70;32.50;;;;;;5110202;27;20129;-72
2022/03/08 11:00:20;;;;;;;6.35;4.65;;;30.00;32.40;;;;;;5130480;27;20047;-72
2022/03/08 11:03:13;;;;;;;6.97;4.57;;;29.90;32.00;;;;;;5110462;27;20428;-73
2022/03/08 11:05:47;;;;;;;7.22;4.70;;;29.30;31.80;;;;;;5107619;27;20092;-72
2022/03/08 11:08:13;;;;;;;8.57;4.10;;;28.60;31.90;;;;;;5111767;27;20105;-73
2022/03/08 11:10:40;;;;;;;7.45;4.05;;;27.80;32.20;;;;;;5111617;27;20058;-73
2022/03/08 11:13:06;;;;;;;8.18;4.20;;;27.70;31.90;;;;;;5111038;27;20051;-73
2022/03/08 11:15:34;;;;;;;5.10;3.97;;;28.10;32.20;;;;;;5111635;27;20050;-73
2022/03/08 11:18:02;;;;;;;6.95;4.20;;;29.00;31.50;;;;;;5109810;27;20493;-73
2022/03/08 11:20:28;;;;;;;6.30;3.90;;;28.80;31.00;;;;;;5111578;27;20130;-72
2022/03/08 11:22:57;;;;;;;6.57;4.03;;;28.60;30.80;;;;;;5131675;27;20495;-73
2022/03/08 11:25:30;;;;;;;8.38;4.18;;;28.00;31.00;;;;;;5111310;27;20535;-73
2022/03/08 11:27:57;;;;;;;6.63;4.07;;;28.10;31.80;;;;;;5130007;27;20500;-73
2022/03/08 11:30:26;;;;;;;7.82;4.10;;;28.50;31.60;;;;;;5115661;27;20079;-75
2022/03/08 11:32:59;;;;;;;6.55;3.95;;;29.20;31.30;;;;;;5104076;27;20043;-74
2022/03/08 11:35:33;;;;;;;6.78;4.05;;;29.60;31.20;;;;;;5108534;27;20062;-74
2022/03/08 11:38:00;;;;;;;6.78;3.97;;;29.70;31.20;;;;;;5108361;27;20074;-75
2022/03/08 11:40:26;;;;;;;6.00;3.92;;;29.70;30.80;;;;;;5127373;27;20045;-75
2022/03/08 11:42:59;;;;;;;7.78;4.50;;;28.50;30.70;;;;;;5124465;27;20051;-76
2022/03/08 11:45:28;;;;;;;7.80;4.20;;;27.50;31.70;;;;;;5146632;27;20054;-75
2022/03/08 11:47:58;;;;;;;7.55;3.88;;;27.20;32.00;;;;;;5125490;27;20107;-75
2022/03/08 11:50:34;;;;;;;9.65;3.90;;;26.70;31.80;;;;;;5127623;27;20043;-75
2022/03/08 11:53:07;;;;;;;10.55;4.22;;;25.90;32.50;;;;;;5126953;27;20038;-75
2022/03/08 11:55:39;;;;;;;5.65;4.50;;;25.70;32.80;;;;;;5106992;27;20039;-75
2022/03/08 11:58:10;;;;;;;5.80;3.75;;;25.60;33.30;;;;;;5123797;27;20059;-75
2022/03/08 12:00:48;;;;;;;10.70;4.10;;;25.90;32.60;;;;;;5105908;27;20062;-75
2022/03/08 12:03:22;;;;;;;7.55;4.03;;;26.10;32.50;;;;;;5119083;27;20076;-74
2022/03/08 12:05:55;;;;;;;7.07;4.20;;;25.70;32.30;;;;;;5107052;27;20158;-75
2022/03/08 12:08:27;;;;;;;6.00;4.07;;;25.80;32.60;;;;;;5107228;27;20100;-73
2022/03/08 12:11:13;;;;;;;4.95;3.80;;;25.50;33.10;;;;;;5112562;27;20097;-72
2022/03/08 12:13:57;;;;;;;8.68;4.20;;;26.10;33.00;;;;;;5127784;27;20051;-73
2022/03/08 12:16:25;;;;;;;5.50;3.90;;;26.70;32.90;;;;;;5095268;27;20067;-73
2022/03/08 12:18:54;;;;;;;5.38;3.97;;;26.60;32.10;;;;;;5127822;27;20502;-73
2022/03/08 12:21:23;;;;;;;8.07;3.83;;;26.60;32.90;;;;;;5127582;27;20376;-76
2022/03/08 12:24:12;;;;;;;5.72;3.75;;;27.30;32.20;;;;;;5124711;27;20051;-75
2022/03/08 12:26:59;;;;;;;7.07;3.67;;;26.70;32.10;;;;;;5145598;27;20656;-75
2022/03/08 12:29:49;;;;;;;5.50;3.83;;;26.00;32.40;;;;;;5145898;27;20489;-74
2022/03/08 12:32:42;;;;;;;5.75;3.60;;;26.00;32.80;;;;;;5119112;27;20467;-74
2022/03/08 12:35:24;;;;;;;7.20;4.18;;;26.40;33.70;;;;;;5112442;27;20047;-74
2022/03/08 12:37:59;;;;;;;5.43;3.60;;;27.20;32.80;;;;;;5112119;27;20368;-74
2022/03/08 12:40:26;;;;;;;7.95;3.80;;;28.30;31.70;;;;;;5129322;27;20038;-74
2022/03/08 12:43:07;;;;;;;5.60;3.50;;;28.50;31.50;;;;;;5109662;27;20448;-74
2022/03/08 12:45:35;;;;;;;6.40;3.47;;;28.10;31.30;;;;;;5128969;27;20104;-75